createdAt,value
2022-08-21T00:00:21.957Z,19.00
2022-08-21T00:02:55.564Z,19.00
2022-08-21T00:05:27.260Z,18.80
2022-08-21T00:07:57.698Z,18.70
2022-08-21T00:10:28.749Z,18.70
2022-08-21T00:12:59.463Z,18.70
2022-08-21T00:15:35.618Z,18.70
2022-08-21T00:18:06.997Z,18.70
2022-08-21T00:20:38.976Z,18.70
2022-08-21T00:23:09.364Z,18.70
2022-08-21T00:25:39.967Z,18.70
2022-08-21T00:28:10.372Z,18.70
2022-08-21T00:30:44.148Z,18.80
2022-08-21T00:33:15.059Z,18.70
2022-08-21T00:35:46.897Z,18.70
2022-08-21T00:38:17.179Z,18.60
2022-08-21T00:40:51.653Z,18.60
2022-08-21T00:43:25.032Z,18.50
2022-08-21T00:45:58.665Z,18.50
2022-08-21T00:48:29.416Z,18.50
2022-08-21T00:51:05.854Z,18.50
2022-08-21T00:53:38.605Z,18.50
2022-08-21T00:56:13.780Z,18.50
2022-08-21T00:58:46.951Z,18.40
2022-08-21T01:01:21.781Z,18.40
2022-08-21T01:03:52.387Z,18.40
2022-08-21T01:06:23.432Z,18.40
2022-08-21T01:08:53.685Z,18.30
2022-08-21T01:11:24.975Z,18.30
2022-08-21T01:13:55.891Z,18.30
2022-08-21T01:16:28.810Z,18.30
2022-08-21T01:18:59.027Z,18.30
2022-08-21T01:21:32.136Z,18.40
2022-08-21T01:24:02.351Z,18.40
2022-08-21T01:26:36.375Z,18.30
2022-08-21T01:29:13.369Z,18.30
2022-08-21T01:31:43.792Z,18.20
2022-08-21T01:34:14.583Z,18.20
2022-08-21T01:36:49.256Z,18.10
2022-08-21T01:39:20.807Z,18.10
2022-08-21T01:41:51.230Z,18.10
2022-08-21T01:44:25.266Z,18.10
2022-08-21T01:46:56.772Z,18.00
2022-08-21T01:49:27.126Z,17.80
2022-08-21T01:52:00.223Z,17.70
2022-08-21T01:54:30.626Z,17.70
2022-08-21T01:57:02.004Z,17.60
2022-08-21T01:59:32.488Z,17.50
2022-08-21T02:02:02.862Z,17.50
2022-08-21T02:04:34.888Z,17.40
2022-08-21T02:07:08.636Z,17.50
2022-08-21T02:09:43.633Z,17.70
2022-08-21T02:12:14.551Z,18.00
2022-08-21T02:14:45.035Z,18.10
2022-08-21T02:17:15.466Z,18.10
2022-08-21T02:19:46.021Z,18.00
2022-08-21T02:22:19.184Z,18.00
2022-08-21T02:24:54.001Z,18.00
2022-08-21T02:27:27.411Z,17.90
2022-08-21T02:29:59.236Z,17.90
2022-08-21T02:32:29.947Z,17.90
2022-08-21T02:34:59.906Z,17.90
2022-08-21T02:37:32.982Z,17.90
2022-08-21T02:40:04.239Z,17.80
2022-08-21T02:42:34.649Z,17.60
2022-08-21T02:45:04.867Z,17.60
2022-08-21T02:47:35.222Z,17.60
2022-08-21T02:50:05.649Z,17.50
2022-08-21T02:52:38.697Z,17.50
2022-08-21T02:55:09.696Z,17.40
2022-08-21T02:57:39.921Z,17.50
2022-08-21T03:00:12.992Z,17.50
2022-08-21T03:02:43.949Z,17.60
2022-08-21T03:05:16.225Z,17.70
2022-08-21T03:07:50.737Z,18.00
2022-08-21T03:10:21.280Z,18.20
2022-08-21T03:12:52.275Z,18.30
2022-08-21T03:15:26.008Z,18.30
2022-08-21T03:17:57.121Z,18.30
2022-08-21T03:20:30.654Z,18.50
2022-08-21T03:23:04.568Z,18.50
2022-08-21T03:25:44.237Z,18.50
2022-08-21T03:28:18.491Z,18.50
2022-08-21T03:30:51.863Z,18.50
2022-08-21T03:33:23.313Z,18.60
2022-08-21T03:36:01.808Z,18.60
2022-08-21T03:38:36.264Z,18.60
2022-08-21T03:41:07.092Z,18.60
2022-08-21T03:43:39.905Z,18.60
2022-08-21T03:46:10.711Z,18.50
2022-08-21T03:48:42.716Z,18.50
2022-08-21T03:51:13.401Z,18.60
2022-08-21T03:53:46.232Z,18.50
2022-08-21T03:56:17.291Z,18.50
2022-08-21T03:58:48.233Z,18.60
2022-08-21T04:01:18.497Z,19.50
2022-08-21T04:03:48.930Z,18.60
2022-08-21T04:06:19.103Z,18.50
2022-08-21T04:08:52.124Z,18.50
2022-08-21T04:11:23.067Z,18.50
2022-08-21T04:13:53.178Z,18.50
2022-08-21T04:16:23.479Z,18.40
2022-08-21T04:18:53.787Z,18.40
2022-08-21T04:21:24.336Z,18.40
2022-08-21T04:23:57.888Z,18.40
2022-08-21T04:26:28.208Z,18.50
2022-08-21T04:28:59.521Z,18.40
2022-08-21T04:31:29.719Z,18.40
2022-08-21T04:34:00.498Z,18.40
2022-08-21T04:36:30.766Z,18.30
2022-08-21T04:39:04.224Z,18.30
2022-08-21T04:41:35.194Z,18.30
2022-08-21T04:44:05.502Z,18.40
2022-08-21T04:46:35.591Z,18.30
2022-08-21T04:49:06.360Z,18.30
2022-08-21T04:51:40.325Z,18.30
2022-08-21T04:54:16.882Z,18.30
2022-08-21T04:56:51.072Z,18.30
2022-08-21T04:59:25.197Z,18.30
2022-08-21T05:01:57.851Z,18.30
2022-08-21T05:04:31.870Z,18.40
2022-08-21T05:07:05.377Z,18.40
2022-08-21T05:09:39.462Z,18.40
2022-08-21T05:12:10.316Z,18.30
2022-08-21T05:14:40.998Z,18.30
2022-08-21T05:17:10.865Z,18.40
2022-08-21T05:19:41.104Z,18.30
2022-08-21T05:22:11.372Z,18.30
2022-08-21T05:24:44.348Z,18.30
2022-08-21T05:27:14.639Z,18.40
2022-08-21T05:29:48.169Z,18.40
2022-08-21T05:32:19.121Z,18.40
2022-08-21T05:34:49.202Z,18.40
2022-08-21T05:37:19.240Z,18.40
2022-08-21T05:40:20.610Z,18.30
2022-08-21T05:42:42.259Z,18.40
2022-08-21T05:45:12.935Z,18.40
2022-08-21T05:47:42.743Z,18.50
2022-08-21T05:50:13.161Z,18.40
2022-08-21T05:52:43.327Z,18.30
2022-08-21T05:55:16.125Z,18.40
2022-08-21T05:57:46.163Z,18.40
2022-08-21T06:00:17.877Z,18.40
2022-08-21T06:02:48.606Z,18.50
2022-08-21T06:05:21.149Z,18.50
2022-08-21T06:08:07.133Z,18.60
2022-08-21T06:10:39.545Z,18.60
2022-08-21T06:13:09.624Z,18.50
2022-08-21T06:15:39.888Z,18.60
2022-08-21T06:18:10.122Z,18.60
2022-08-21T06:20:40.866Z,18.70
2022-08-21T06:23:11.327Z,18.70
2022-08-21T06:25:44.002Z,18.80
2022-08-21T06:28:14.703Z,18.80
2022-08-21T06:30:45.144Z,18.90
2022-08-21T06:33:15.409Z,19.00
2022-08-21T06:35:48.300Z,19.10
2022-08-21T06:38:18.348Z,19.20
2022-08-21T06:40:51.662Z,19.20
2022-08-21T06:43:22.741Z,19.30
2022-08-21T06:46:08.868Z,19.30
2022-08-21T06:48:39.024Z,19.30
2022-08-21T06:51:09.390Z,19.40
2022-08-21T06:53:39.377Z,19.50
2022-08-21T06:56:12.212Z,19.50
2022-08-21T06:58:42.379Z,19.50
2022-08-21T07:01:12.539Z,19.50
2022-08-21T07:03:45.082Z,19.60
2022-08-21T07:06:15.420Z,19.80
2022-08-21T07:08:45.696Z,19.80
2022-08-21T07:11:22.746Z,19.90
2022-08-21T07:13:53.792Z,19.90
2022-08-21T07:16:24.383Z,19.90
2022-08-21T07:18:54.467Z,20.00
2022-08-21T07:21:26.192Z,20.20
2022-08-21T07:23:57.467Z,20.30
2022-08-21T07:26:30.383Z,20.30
2022-08-21T07:29:00.494Z,20.30
2022-08-21T07:31:30.897Z,20.40
2022-08-21T07:34:01.134Z,20.50
2022-08-21T07:36:31.282Z,20.60
2022-08-21T07:39:03.527Z,20.60
2022-08-21T07:41:36.532Z,20.70
2022-08-21T07:44:08.912Z,20.80
2022-08-21T07:46:42.681Z,20.90
2022-08-21T07:49:12.752Z,21.00
2022-08-21T07:51:43.131Z,21.20
2022-08-21T07:54:17.344Z,21.30
2022-08-21T07:56:50.129Z,21.30
2022-08-21T07:59:20.094Z,21.30
2022-08-21T08:01:50.111Z,21.40
2022-08-21T08:04:24.451Z,21.50
2022-08-21T08:06:56.495Z,21.60
2022-08-21T08:09:26.440Z,21.80
2022-08-21T08:11:59.161Z,22.20
2022-08-21T08:14:31.680Z,22.40
2022-08-21T08:17:03.013Z,22.60
2022-08-21T08:19:33.194Z,22.90
2022-08-21T08:22:04.285Z,23.20
2022-08-21T08:24:34.272Z,23.50
2022-08-21T08:27:07.054Z,23.80
2022-08-21T08:29:37.077Z,24.10
2022-08-21T08:32:08.344Z,24.80
2022-08-21T08:34:38.442Z,25.40
2022-08-21T08:37:11.598Z,25.90
2022-08-21T08:39:42.109Z,26.40
2022-08-21T08:42:33.968Z,27.20
2022-08-21T08:45:08.825Z,28.10
2022-08-21T08:47:41.986Z,28.50
2022-08-21T08:50:17.239Z,29.00
2022-08-21T08:52:53.525Z,29.40
2022-08-21T08:55:27.283Z,29.60
2022-08-21T08:58:01.216Z,30.90
2022-08-21T09:00:36.458Z,30.60
2022-08-21T09:03:07.639Z,30.80
2022-08-21T09:05:46.180Z,30.90
2022-08-21T09:08:32.164Z,31.20
2022-08-21T09:11:06.859Z,31.70
2022-08-21T09:13:50.347Z,32.50
2022-08-21T09:16:34.707Z,33.10
2022-08-21T09:19:15.430Z,33.10
2022-08-21T09:22:08.718Z,32.10
2022-08-21T09:24:52.103Z,31.50
2022-08-21T09:27:23.842Z,31.60
2022-08-21T09:29:59.181Z,31.70
2022-08-21T09:32:37.775Z,31.20
2022-08-21T09:35:11.748Z,31.00
2022-08-21T09:37:53.198Z,30.80
2022-08-21T09:40:33.508Z,30.40
2022-08-21T09:43:09.774Z,29.80
2022-08-21T09:45:44.666Z,29.20
2022-08-21T09:48:17.913Z,28.30
2022-08-21T09:50:49.734Z,27.90
2022-08-21T09:53:22.399Z,27.80
2022-08-21T09:56:08.708Z,29.00
2022-08-21T09:58:40.897Z,28.10
2022-08-21T10:01:18.801Z,28.30
2022-08-21T10:03:52.571Z,28.20
2022-08-21T10:06:28.990Z,27.90
2022-08-21T10:09:13.563Z,27.60
2022-08-21T10:11:55.953Z,27.20
2022-08-21T10:14:41.198Z,27.00
2022-08-21T10:17:22.432Z,27.10
2022-08-21T10:19:58.012Z,27.50
2022-08-21T10:22:38.339Z,27.60
2022-08-21T10:25:17.521Z,28.10
2022-08-21T10:27:58.838Z,28.60
2022-08-21T10:30:42.157Z,29.80
2022-08-21T10:33:30.955Z,32.00
2022-08-21T10:36:10.796Z,33.70
2022-08-21T10:42:17.323Z,33.00
2022-08-21T10:44:57.287Z,32.70
2022-08-21T10:47:36.982Z,31.90
2022-08-21T10:50:21.150Z,31.50
2022-08-21T10:53:20.736Z,32.20
2022-08-21T10:55:58.739Z,33.00
2022-08-21T10:58:33.269Z,33.70
2022-08-21T11:01:09.188Z,34.90
2022-08-21T11:03:42.864Z,35.50
2022-08-21T11:06:19.524Z,34.30
2022-08-21T11:08:55.267Z,34.70
2022-08-21T11:11:35.974Z,33.90
2022-08-21T11:14:14.056Z,33.30
2022-08-21T11:16:47.519Z,33.60
2022-08-21T11:19:23.195Z,34.00
2022-08-21T11:22:11.633Z,33.80
2022-08-21T11:24:48.951Z,33.70
2022-08-21T11:27:29.168Z,32.70
2022-08-21T11:30:02.725Z,31.90
2022-08-21T11:33:04.697Z,31.60
2022-08-21T11:35:42.611Z,31.50
2022-08-21T11:38:31.072Z,31.10
2022-08-21T11:41:19.389Z,31.00
2022-08-21T11:43:52.779Z,30.90
2022-08-21T11:46:32.676Z,30.80
2022-08-21T11:49:20.303Z,30.50
2022-08-21T11:51:57.300Z,30.40
2022-08-21T11:54:34.946Z,30.40
2022-08-21T11:57:09.312Z,30.40
2022-08-21T11:59:44.791Z,30.30
2022-08-21T12:02:19.530Z,30.00
2022-08-21T12:04:53.254Z,29.70
2022-08-21T12:07:35.162Z,29.40
2022-08-21T12:10:11.266Z,29.20
2022-08-21T12:12:44.297Z,29.10
2022-08-21T12:15:26.955Z,28.90
2022-08-21T12:18:02.949Z,28.70
2022-08-21T12:21:08.243Z,28.60
2022-08-21T12:23:49.264Z,28.70
2022-08-21T12:26:33.878Z,28.60
2022-08-21T12:29:16.641Z,28.30
2022-08-21T12:31:55.933Z,28.30
2022-08-21T12:34:33.650Z,28.40
2022-08-21T12:37:08.273Z,28.50
2022-08-21T12:39:42.430Z,28.70
2022-08-21T12:42:22.138Z,28.70
2022-08-21T12:44:57.567Z,28.80
2022-08-21T12:47:33.745Z,28.70
2022-08-21T12:50:08.844Z,28.70
2022-08-21T12:52:43.732Z,28.70
2022-08-21T12:55:18.408Z,28.60
2022-08-21T12:57:51.009Z,28.50
2022-08-21T13:00:26.868Z,28.50
2022-08-21T13:02:58.906Z,28.40
2022-08-21T13:05:35.071Z,28.40
2022-08-21T13:08:09.177Z,28.20
2022-08-21T13:10:41.180Z,28.00
2022-08-21T13:13:28.308Z,27.90
2022-08-21T13:16:03.257Z,27.90
2022-08-21T13:18:37.358Z,28.00
2022-08-21T13:21:10.195Z,27.90
2022-08-21T13:23:40.338Z,27.80
2022-08-21T13:26:18.581Z,27.60
2022-08-21T13:28:53.378Z,27.60
2022-08-21T13:31:29.928Z,27.50
2022-08-21T13:34:00.076Z,27.60
2022-08-21T13:36:32.323Z,27.60
2022-08-21T13:39:02.678Z,27.60
2022-08-21T13:41:35.983Z,27.50
2022-08-21T13:44:20.525Z,27.50
2022-08-21T13:46:52.653Z,27.40
2022-08-21T13:49:26.064Z,27.40
2022-08-21T13:51:56.255Z,27.30
2022-08-21T13:54:28.085Z,27.30
2022-08-21T13:56:58.957Z,27.20
2022-08-21T13:59:40.252Z,27.30
2022-08-21T14:02:17.739Z,27.40
2022-08-21T14:04:55.800Z,27.60
2022-08-21T14:07:31.377Z,27.60
2022-08-21T14:10:05.314Z,27.70
2022-08-21T14:12:42.492Z,27.70
2022-08-21T14:15:18.470Z,27.60
2022-08-21T14:17:50.178Z,27.50
2022-08-21T14:20:31.753Z,27.40
2022-08-21T14:23:01.920Z,27.30
2022-08-21T14:25:34.306Z,27.20
2022-08-21T14:28:17.706Z,27.20
2022-08-21T14:30:53.948Z,27.20
2022-08-21T14:33:29.971Z,27.30
2022-08-21T14:36:01.973Z,27.30
2022-08-21T14:38:33.371Z,27.40
2022-08-21T14:41:07.735Z,27.30
2022-08-21T14:43:38.268Z,27.30
2022-08-21T14:46:10.898Z,27.20
2022-08-21T14:48:40.972Z,27.30
2022-08-21T14:51:10.699Z,27.30
2022-08-21T14:53:41.354Z,27.40
2022-08-21T14:56:11.482Z,27.30
2022-08-21T14:58:41.929Z,27.30
2022-08-21T15:01:17.251Z,27.20
2022-08-21T15:03:48.585Z,27.10
2022-08-21T15:06:21.573Z,27.10
2022-08-21T15:08:52.213Z,27.10
2022-08-21T15:11:42.128Z,27.00
2022-08-21T15:14:20.498Z,26.90
2022-08-21T15:16:54.149Z,26.90
2022-08-21T15:19:24.314Z,26.90
2022-08-21T15:21:54.108Z,26.90
2022-08-21T15:24:23.820Z,26.80
2022-08-21T15:26:54.353Z,26.90
2022-08-21T15:29:25.025Z,26.90
2022-08-21T15:32:18.573Z,26.90
2022-08-21T15:34:48.756Z,26.90
2022-08-21T15:37:18.639Z,26.90
2022-08-21T15:39:53.687Z,26.90
2022-08-21T15:42:25.592Z,26.90
2022-08-21T15:44:56.803Z,26.80
2022-08-21T15:47:34.431Z,26.80
2022-08-21T15:50:04.778Z,26.70
2022-08-21T15:52:34.851Z,26.70
2022-08-21T15:55:05.080Z,26.70
2022-08-21T15:57:35.080Z,26.60
2022-08-21T16:00:12.930Z,26.60
2022-08-21T16:02:49.504Z,26.50
2022-08-21T16:05:20.255Z,26.50
2022-08-21T16:07:51.829Z,26.40
2022-08-21T16:10:29.832Z,26.40
2022-08-21T16:13:06.942Z,26.30
2022-08-21T16:15:36.955Z,26.30
2022-08-21T16:18:09.680Z,26.30
2022-08-21T16:20:40.048Z,26.30
2022-08-21T16:23:10.297Z,26.30
2022-08-21T16:25:40.588Z,26.20
2022-08-21T16:28:14.369Z,26.20
2022-08-21T16:30:45.868Z,26.10
2022-08-21T16:33:25.906Z,26.00
2022-08-21T16:35:56.363Z,25.90
2022-08-21T16:38:26.518Z,25.90
2022-08-21T16:40:56.679Z,25.80
2022-08-21T16:43:30.100Z,25.80
2022-08-21T16:46:01.325Z,25.60
2022-08-21T16:48:34.103Z,25.60
2022-08-21T16:51:04.177Z,25.50
2022-08-21T16:53:34.242Z,25.50
2022-08-21T16:56:04.342Z,25.40
2022-08-21T16:58:38.169Z,25.10
2022-08-21T17:01:11.292Z,24.80
2022-08-21T17:03:46.060Z,24.70
2022-08-21T17:06:16.788Z,24.60
2022-08-21T17:08:47.383Z,24.60
2022-08-21T17:11:37.741Z,23.50
2022-08-21T17:14:11.348Z,24.80
2022-08-21T17:16:42.841Z,25.00
2022-08-21T17:19:16.069Z,25.00
2022-08-21T17:21:46.590Z,25.10
2022-08-21T17:24:17.748Z,25.10
2022-08-21T17:26:48.430Z,25.10
2022-08-21T17:29:19.304Z,25.20
2022-08-21T17:31:49.342Z,25.20
2022-08-21T17:34:22.104Z,25.20
2022-08-21T17:36:52.123Z,25.20
2022-08-21T17:39:26.513Z,25.20
2022-08-21T17:41:57.898Z,25.20
2022-08-21T17:44:28.897Z,25.10
2022-08-21T17:46:59.188Z,25.10
2022-08-21T17:49:31.620Z,25.00
2022-08-21T17:52:02.194Z,25.00
2022-08-21T17:54:32.341Z,25.00
2022-08-21T17:57:02.790Z,24.90
2022-08-21T17:59:32.926Z,24.80
2022-08-21T18:02:04.101Z,24.70
2022-08-21T18:04:42.152Z,24.60
2022-08-21T18:07:12.195Z,24.60
2022-08-21T18:09:45.813Z,24.50
2022-08-21T18:12:16.738Z,24.40
2022-08-21T18:14:47.276Z,24.30
2022-08-21T18:17:22.429Z,24.30
2022-08-21T18:19:55.035Z,24.30
2022-08-21T18:22:25.045Z,24.30
2022-08-21T18:24:55.234Z,24.20
2022-08-21T18:27:29.505Z,24.10
2022-08-21T18:30:01.537Z,24.10
2022-08-21T18:32:32.517Z,24.10
2022-08-21T18:35:08.615Z,24.00
2022-08-21T18:37:41.665Z,23.90
2022-08-21T18:40:12.231Z,23.90
2022-08-21T18:42:55.225Z,23.90
2022-08-21T18:45:28.188Z,23.70
2022-08-21T18:48:03.691Z,23.70
2022-08-21T18:50:36.618Z,23.50
2022-08-21T18:53:07.315Z,23.50
2022-08-21T18:55:51.202Z,23.40
2022-08-21T18:58:21.724Z,23.40
2022-08-21T19:00:55.646Z,23.40
2022-08-21T19:03:27.366Z,23.30
2022-08-21T19:06:00.184Z,23.30
2022-08-21T19:08:30.489Z,23.20
2022-08-21T19:11:03.248Z,23.20
2022-08-21T19:13:35.693Z,23.20
2022-08-21T19:16:08.162Z,23.10
2022-08-21T19:18:43.951Z,23.10
2022-08-21T19:21:17.125Z,23.00
2022-08-21T19:23:52.711Z,22.90
2022-08-21T19:26:39.686Z,22.80
2022-08-21T19:29:11.727Z,22.90
2022-08-21T19:31:45.034Z,22.90
2022-08-21T19:34:18.587Z,22.90
2022-08-21T19:36:51.331Z,22.80
2022-08-21T19:39:21.753Z,22.80
2022-08-21T19:41:54.860Z,22.70
2022-08-21T19:44:29.395Z,22.60
2022-08-21T19:47:00.628Z,22.60
2022-08-21T19:49:37.907Z,22.50
2022-08-21T19:52:13.836Z,22.50
2022-08-21T19:54:44.757Z,22.40
2022-08-21T19:57:15.516Z,22.40
2022-08-21T19:59:45.986Z,22.30
2022-08-21T20:02:17.508Z,22.30
2022-08-21T20:04:53.283Z,22.40
2022-08-21T20:07:27.157Z,22.30
2022-08-21T20:09:57.427Z,22.20
2022-08-21T20:12:28.016Z,22.10
2022-08-21T20:14:58.505Z,22.10
2022-08-21T20:17:28.501Z,22.10
2022-08-21T20:19:58.927Z,22.10
2022-08-21T20:22:32.517Z,22.10
2022-08-21T20:25:02.800Z,23.10
2022-08-21T20:30:23.344Z,22.00
2022-08-21T20:32:53.637Z,22.10
2022-08-21T20:35:25.937Z,22.20
2022-08-21T20:37:59.262Z,22.10
2022-08-21T20:40:32.968Z,22.00
2022-08-21T20:43:22.352Z,21.90
2022-08-21T20:45:52.999Z,21.80
2022-08-21T20:48:27.478Z,21.80
2022-08-21T20:51:05.495Z,21.80
2022-08-21T20:53:45.063Z,21.80
2022-08-21T20:56:25.449Z,21.70
2022-08-21T20:59:06.492Z,21.60
2022-08-21T21:01:38.641Z,21.60
2022-08-21T21:04:19.507Z,21.60
2022-08-21T21:06:54.435Z,21.60
2022-08-21T21:09:41.021Z,21.60
2022-08-21T21:12:18.683Z,21.50
2022-08-21T21:15:01.075Z,21.50
2022-08-21T21:17:36.388Z,21.50
2022-08-21T21:20:13.676Z,21.40
2022-08-21T21:22:48.405Z,21.40
2022-08-21T21:25:40.055Z,21.30
2022-08-21T21:28:15.422Z,21.30
2022-08-21T21:30:57.466Z,21.20
2022-08-21T21:33:28.721Z,21.20
2022-08-21T21:36:05.631Z,21.20
2022-08-21T21:38:51.515Z,21.10
2022-08-21T21:41:35.060Z,21.10
2022-08-21T21:44:22.416Z,21.10
2022-08-21T21:47:01.360Z,21.10
2022-08-21T21:50:04.719Z,21.00
2022-08-21T21:52:55.738Z,21.00
2022-08-21T21:55:38.568Z,21.00
2022-08-21T21:58:32.275Z,21.00
2022-08-21T22:01:10.986Z,21.00
2022-08-21T22:03:47.596Z,21.00
2022-08-21T22:06:27.281Z,21.10
2022-08-21T22:09:05.243Z,21.00
2022-08-21T22:11:55.340Z,21.00
2022-08-21T22:14:35.962Z,21.10
2022-08-21T22:17:13.787Z,21.00
2022-08-21T22:19:47.791Z,21.00
2022-08-21T22:22:22.000Z,21.00
2022-08-21T22:24:56.327Z,20.90
2022-08-21T22:27:33.260Z,21.00
2022-08-21T22:30:11.257Z,20.90
2022-08-21T22:32:47.065Z,20.90
2022-08-21T22:35:21.205Z,20.80
2022-08-21T22:37:53.645Z,20.80
2022-08-21T22:40:27.906Z,20.80
2022-08-21T22:43:02.907Z,20.70
2022-08-21T22:45:40.446Z,20.70
2022-08-21T22:51:05.824Z,20.70
2022-08-21T22:53:38.807Z,20.70
2022-08-21T22:56:10.755Z,20.70
2022-08-21T22:58:55.194Z,20.80
2022-08-21T23:01:43.581Z,20.80
2022-08-21T23:04:20.861Z,20.70
2022-08-21T23:06:55.417Z,20.60
2022-08-21T23:09:34.065Z,20.60
2022-08-21T23:12:21.241Z,20.50
2022-08-21T23:14:54.843Z,20.50
2022-08-21T23:17:39.434Z,20.50
2022-08-21T23:20:19.881Z,20.50
2022-08-21T23:22:58.908Z,20.40
2022-08-21T23:25:44.867Z,20.40
2022-08-21T23:28:26.282Z,20.40
2022-08-21T23:31:05.706Z,20.40
2022-08-21T23:34:00.797Z,20.40
2022-08-21T23:37:04.212Z,20.30
2022-08-21T23:39:51.511Z,20.30
2022-08-21T23:42:39.835Z,20.30
2022-08-21T23:45:32.841Z,20.30
2022-08-21T23:48:12.538Z,20.30
2022-08-21T23:50:59.652Z,20.30
2022-08-21T23:53:40.522Z,20.30
2022-08-21T23:56:29.156Z,20.20
2022-08-21T23:59:15.376Z,20.20
